createdAt,value
2023-03-28T00:02:06.061Z,13.20
2023-03-28T00:04:34.605Z,13.43
2023-03-28T00:07:02.649Z,11.63
2023-03-28T00:09:31.629Z,13.30
2023-03-28T00:12:00.042Z,19.42
2023-03-28T00:14:29.474Z,11.20
2023-03-28T00:16:57.592Z,9.75
2023-03-28T00:19:25.594Z,15.98
2023-03-28T00:21:54.774Z,17.15
2023-03-28T00:24:22.732Z,12.27
2023-03-28T00:26:54.259Z,12.25
2023-03-28T00:29:26.073Z,12.68
2023-03-28T00:31:55.546Z,11.80
2023-03-28T00:34:23.661Z,12.50
2023-03-28T00:36:53.976Z,9.95
2023-03-28T00:39:22.255Z,10.38
2023-03-28T00:41:50.479Z,13.85
2023-03-28T00:44:45.070Z,9.95
2023-03-28T00:47:25.778Z,13.38
2023-03-28T00:49:56.609Z,15.05
2023-03-28T00:52:29.511Z,11.65
2023-03-28T00:54:59.474Z,14.63
2023-03-28T00:57:28.577Z,10.55
2023-03-28T00:59:57.133Z,16.50
2023-03-28T01:02:27.124Z,14.07
2023-03-28T01:05:00.297Z,12.75
2023-03-28T01:07:35.245Z,12.02
2023-03-28T01:10:05.109Z,14.32
2023-03-28T01:12:34.381Z,12.25
2023-03-28T01:15:03.964Z,12.15
2023-03-28T01:17:46.396Z,18.17
2023-03-28T01:20:35.944Z,15.80
2023-03-28T01:23:37.935Z,12.30
2023-03-28T01:26:34.629Z,17.52
2023-03-28T01:29:25.451Z,14.63
2023-03-28T01:32:19.828Z,14.98
2023-03-28T01:35:41.382Z,12.60
2023-03-28T01:38:18.082Z,15.75
2023-03-28T01:40:52.737Z,20.00
2023-03-28T01:43:35.745Z,17.08
2023-03-28T01:46:10.849Z,14.82
2023-03-28T01:48:51.010Z,21.40
2023-03-28T01:51:26.656Z,17.55
2023-03-28T01:54:06.502Z,19.63
2023-03-28T01:56:40.988Z,16.10
2023-03-28T01:59:17.181Z,13.15
2023-03-28T02:02:20.592Z,25.55
2023-03-28T02:04:51.082Z,15.18
2023-03-28T02:07:22.144Z,21.13
2023-03-28T02:10:24.889Z,13.15
2023-03-28T02:13:01.962Z,17.20
2023-03-28T02:15:52.881Z,17.58
2023-03-28T02:18:52.919Z,14.32
2023-03-28T02:21:52.279Z,20.77
2023-03-28T02:24:35.258Z,17.35
2023-03-28T02:27:14.164Z,11.50
2023-03-28T02:29:50.257Z,19.48
2023-03-28T02:32:34.267Z,14.35
2023-03-28T02:35:05.012Z,12.38
2023-03-28T02:37:49.862Z,13.60
2023-03-28T02:40:36.774Z,14.68
2023-03-28T02:43:27.596Z,15.07
2023-03-28T02:46:09.337Z,13.85
2023-03-28T02:48:54.753Z,19.73
2023-03-28T02:54:05.114Z,11.95
2023-03-28T02:56:41.282Z,15.05
2023-03-28T02:59:17.053Z,11.57
2023-03-28T03:01:45.951Z,13.90
2023-03-28T03:04:17.235Z,20.80
2023-03-28T03:06:45.505Z,11.93
2023-03-28T03:09:13.665Z,13.60
2023-03-28T03:11:43.736Z,17.25
2023-03-28T03:14:13.168Z,15.80
2023-03-28T03:16:43.198Z,12.48
2023-03-28T03:19:11.965Z,18.70
2023-03-28T03:21:39.912Z,15.48
2023-03-28T03:24:09.793Z,19.88
2023-03-28T03:26:40.798Z,13.00
2023-03-28T03:29:12.343Z,14.00
2023-03-28T03:31:40.408Z,16.58
2023-03-28T03:34:27.203Z,17.48
2023-03-28T03:36:58.877Z,14.75
2023-03-28T03:39:27.032Z,15.25
2023-03-28T03:41:56.449Z,16.35
2023-03-28T03:44:25.803Z,18.80
2023-03-28T03:46:54.572Z,19.02
2023-03-28T03:49:22.663Z,19.05
2023-03-28T03:51:50.822Z,13.23
2023-03-28T03:54:18.993Z,16.50
2023-03-28T03:56:48.532Z,22.90
2023-03-28T03:59:17.510Z,18.98
2023-03-28T04:01:48.827Z,15.77
2023-03-28T04:04:37.561Z,13.88
2023-03-28T04:07:34.724Z,16.42
2023-03-28T04:10:03.887Z,15.32
2023-03-28T04:12:36.294Z,20.13
2023-03-28T04:15:04.857Z,25.27
2023-03-28T04:17:35.091Z,22.30
2023-03-28T04:20:12.809Z,12.52
2023-03-28T04:23:13.006Z,13.90
2023-03-28T04:25:42.985Z,18.48
2023-03-28T04:28:18.789Z,21.23
2023-03-28T04:31:04.382Z,16.97
2023-03-28T04:33:46.293Z,14.00
2023-03-28T04:36:18.594Z,14.82
2023-03-28T04:38:53.294Z,12.25
2023-03-28T04:41:41.614Z,24.08
2023-03-28T04:44:33.267Z,25.65
2023-03-28T04:47:08.652Z,15.30
2023-03-28T04:49:38.272Z,21.20
2023-03-28T04:52:06.468Z,17.35
2023-03-28T04:54:34.563Z,20.10
2023-03-28T04:57:10.321Z,23.17
2023-03-28T04:59:44.338Z,19.15
2023-03-28T05:02:19.197Z,17.85
2023-03-28T05:04:58.741Z,17.33
2023-03-28T05:07:27.138Z,18.23
2023-03-28T05:09:56.061Z,14.23
2023-03-28T05:12:24.187Z,18.65
2023-03-28T05:15:03.552Z,16.55
2023-03-28T05:17:32.633Z,18.40
2023-03-28T05:20:11.742Z,20.38
2023-03-28T05:22:49.176Z,17.60
2023-03-28T05:25:17.518Z,17.50
2023-03-28T05:27:45.975Z,18.83
2023-03-28T05:30:15.376Z,19.90
2023-03-28T05:32:44.214Z,20.33
2023-03-28T05:35:16.327Z,15.90
2023-03-28T05:37:47.051Z,16.42
2023-03-28T05:40:16.693Z,20.88
2023-03-28T05:42:45.059Z,19.23
2023-03-28T05:45:16.617Z,23.20
2023-03-28T05:47:44.636Z,22.58
2023-03-28T05:50:15.654Z,17.67
2023-03-28T05:52:43.727Z,21.00
2023-03-28T05:55:11.725Z,19.52
2023-03-28T05:57:40.277Z,18.95
2023-03-28T06:00:11.771Z,22.92
2023-03-28T06:02:46.672Z,22.63
2023-03-28T06:05:19.752Z,19.45
2023-03-28T06:07:48.575Z,14.27
2023-03-28T06:10:19.035Z,18.75
2023-03-28T06:12:58.870Z,19.65
2023-03-28T06:15:27.263Z,17.35
2023-03-28T06:17:56.180Z,24.15
2023-03-28T06:20:25.747Z,16.58
2023-03-28T06:22:55.977Z,21.70
2023-03-28T06:25:24.030Z,18.23
2023-03-28T06:27:52.143Z,17.33
2023-03-28T06:30:20.533Z,19.52
2023-03-28T06:32:51.885Z,18.23
2023-03-28T06:35:20.007Z,20.13
2023-03-28T06:37:49.404Z,12.70
2023-03-28T06:40:24.145Z,16.92
2023-03-28T06:42:52.190Z,18.15
2023-03-28T06:45:32.297Z,16.10
2023-03-28T06:48:05.341Z,20.83
2023-03-28T06:51:02.906Z,17.90
2023-03-28T06:53:32.361Z,18.30
2023-03-28T06:56:00.720Z,23.60
2023-03-28T06:58:31.652Z,24.08
2023-03-28T07:01:07.211Z,25.10
2023-03-28T07:03:57.633Z,22.25
2023-03-28T07:06:27.008Z,22.73
2023-03-28T07:08:58.671Z,15.82
2023-03-28T07:11:52.656Z,19.48
2023-03-28T07:14:20.743Z,22.23
2023-03-28T07:16:48.906Z,20.55
2023-03-28T07:19:17.074Z,19.15
2023-03-28T07:21:47.711Z,12.45
2023-03-28T07:24:17.573Z,16.45
2023-03-28T07:29:37.187Z,15.82
2023-03-28T07:32:05.690Z,24.23
2023-03-28T07:34:33.889Z,17.35
2023-03-28T07:37:03.765Z,17.35
2023-03-28T07:39:51.739Z,12.57
2023-03-28T07:42:23.341Z,18.42
2023-03-28T07:44:51.593Z,18.33
2023-03-28T07:47:19.793Z,17.95
2023-03-28T07:49:47.856Z,20.95
2023-03-28T07:52:16.114Z,21.30
2023-03-28T07:54:44.154Z,15.82
2023-03-28T07:57:13.708Z,17.92
2023-03-28T08:00:13.198Z,19.38
2023-03-28T08:02:44.205Z,13.82
2023-03-28T08:05:13.628Z,16.23
2023-03-28T08:07:45.948Z,10.98
2023-03-28T08:10:15.264Z,19.00
2023-03-28T08:12:44.673Z,24.33
2023-03-28T08:15:12.951Z,18.42
2023-03-28T08:17:41.017Z,16.42
2023-03-28T08:20:11.370Z,17.10
2023-03-28T08:23:04.334Z,15.75
2023-03-28T08:25:44.589Z,25.08
2023-03-28T08:28:16.800Z,14.15
2023-03-28T08:30:45.122Z,13.77
2023-03-28T08:33:13.245Z,14.15
2023-03-28T08:35:41.736Z,15.90
2023-03-28T08:38:18.474Z,23.33
2023-03-28T08:40:56.533Z,14.57
2023-03-28T08:43:44.130Z,13.10
2023-03-28T08:46:13.999Z,19.58
2023-03-28T08:48:44.969Z,18.88
2023-03-28T08:51:20.969Z,19.90
2023-03-28T08:56:19.376Z,24.42
2023-03-28T08:58:56.248Z,16.00
2023-03-28T09:01:25.452Z,18.45
2023-03-28T09:03:53.568Z,13.60
2023-03-28T09:06:30.843Z,12.30
2023-03-28T09:09:34.178Z,22.63
2023-03-28T09:12:41.038Z,15.60
2023-03-28T09:15:23.488Z,15.93
2023-03-28T09:18:07.176Z,19.08
2023-03-28T09:20:43.374Z,18.33
2023-03-28T09:23:53.627Z,17.17
2023-03-28T09:26:26.121Z,15.43
2023-03-28T09:29:03.508Z,17.80
2023-03-28T09:31:36.697Z,17.60
2023-03-28T09:34:07.628Z,13.73
2023-03-28T09:36:48.845Z,12.35
2023-03-28T09:39:28.597Z,11.25
2023-03-28T09:42:03.644Z,13.45
2023-03-28T09:45:04.644Z,12.18
2023-03-28T09:47:53.425Z,11.02
2023-03-28T09:50:25.577Z,12.90
2023-03-28T09:52:58.697Z,20.00
2023-03-28T09:55:29.046Z,10.27
2023-03-28T09:58:02.642Z,9.98
2023-03-28T10:00:37.060Z,10.07
2023-03-28T10:03:32.792Z,12.20
2023-03-28T10:06:20.902Z,10.95
2023-03-28T10:08:50.205Z,11.77
2023-03-28T10:11:25.519Z,10.88
2023-03-28T10:13:55.470Z,14.50
2023-03-28T10:16:28.270Z,7.45
2023-03-28T10:19:23.506Z,11.13
2023-03-28T10:22:09.313Z,10.90
2023-03-28T10:24:40.741Z,9.02
2023-03-28T10:27:16.146Z,8.05
2023-03-28T10:29:45.162Z,13.93
2023-03-28T10:32:24.176Z,9.52
2023-03-28T10:35:25.073Z,10.05
2023-03-28T10:38:04.814Z,11.95
2023-03-28T10:41:01.529Z,11.23
2023-03-28T10:43:45.304Z,8.98
2023-03-28T10:46:21.645Z,10.82
2023-03-28T10:49:25.727Z,13.02
2023-03-28T10:52:13.968Z,10.25
2023-03-28T10:54:52.576Z,14.02
2023-03-28T10:57:41.425Z,9.85
2023-03-28T11:00:16.838Z,13.45
2023-03-28T11:02:58.323Z,8.57
2023-03-28T11:05:37.475Z,10.63
2023-03-28T11:08:28.788Z,10.82
2023-03-28T11:11:08.981Z,10.25
2023-03-28T11:13:51.023Z,8.63
2023-03-28T11:16:28.185Z,8.60
2023-03-28T11:19:19.383Z,14.52
2023-03-28T11:22:00.664Z,7.57
2023-03-28T11:24:37.054Z,14.27
2023-03-28T11:27:32.259Z,9.23
2023-03-28T11:30:10.951Z,10.73
2023-03-28T11:32:49.930Z,9.15
2023-03-28T11:35:26.740Z,11.50
2023-03-28T11:38:02.124Z,12.52
2023-03-28T11:40:38.170Z,9.68
2023-03-28T11:43:14.640Z,9.10
2023-03-28T11:45:52.649Z,16.52
2023-03-28T11:48:30.082Z,14.10
2023-03-28T11:53:52.640Z,11.13
2023-03-28T11:56:35.180Z,9.48
2023-03-28T11:59:17.170Z,8.95
2023-03-28T12:01:48.935Z,10.27
2023-03-28T12:04:22.293Z,10.38
2023-03-28T12:07:03.321Z,12.82
2023-03-28T12:09:44.744Z,9.20
2023-03-28T12:14:53.384Z,13.68
2023-03-28T12:17:45.106Z,20.50
2023-03-28T12:20:28.043Z,13.55
2023-03-28T12:23:01.701Z,7.97
2023-03-28T12:25:55.985Z,10.30
2023-03-28T12:28:32.169Z,7.95
2023-03-28T12:31:06.363Z,7.03
2023-03-28T12:33:44.557Z,8.43
2023-03-28T12:36:28.529Z,8.85
2023-03-28T12:39:01.623Z,9.00
2023-03-28T12:41:38.390Z,9.82
2023-03-28T12:44:13.202Z,6.53
2023-03-28T12:46:50.595Z,9.50
2023-03-28T12:49:32.799Z,10.40
2023-03-28T12:52:07.320Z,6.05
2023-03-28T12:54:53.540Z,6.90
2023-03-28T13:00:23.293Z,16.13
2023-03-28T13:03:21.344Z,12.18
2023-03-28T13:05:57.204Z,7.38
2023-03-28T13:08:32.714Z,10.93
2023-03-28T13:11:13.550Z,10.23
2023-03-28T13:13:48.352Z,9.90
2023-03-28T13:16:26.117Z,7.18
2023-03-28T13:19:06.736Z,4.00
2023-03-28T13:21:43.680Z,5.85
2023-03-28T13:24:32.182Z,7.78
2023-03-28T13:27:01.869Z,7.85
2023-03-28T13:29:46.425Z,7.40
2023-03-28T13:32:18.247Z,4.15
2023-03-28T13:34:51.043Z,7.78
2023-03-28T13:37:23.148Z,6.32
2023-03-28T13:39:53.256Z,4.22
2023-03-28T13:42:31.245Z,8.35
2023-03-28T13:45:02.458Z,7.28
2023-03-28T13:47:36.046Z,5.13
2023-03-28T13:50:15.356Z,5.57
2023-03-28T13:52:43.370Z,6.05
2023-03-28T13:55:20.680Z,7.22
2023-03-28T13:57:49.470Z,3.28
2023-03-28T14:00:21.286Z,4.57
2023-03-28T14:02:52.445Z,6.60
2023-03-28T14:05:23.370Z,6.82
2023-03-28T14:07:53.087Z,6.57
2023-03-28T14:10:23.797Z,4.18
2023-03-28T14:12:53.730Z,5.25
2023-03-28T14:15:27.198Z,6.63
2023-03-28T14:17:59.528Z,6.43
2023-03-28T14:20:28.861Z,8.07
2023-03-28T14:23:00.805Z,6.05
2023-03-28T14:25:30.766Z,7.97
2023-03-28T14:28:06.862Z,7.38
2023-03-28T14:30:39.926Z,9.07
2023-03-28T14:33:20.448Z,6.75
2023-03-28T14:35:58.353Z,8.00
2023-03-28T14:38:33.149Z,9.23
2023-03-28T14:41:10.215Z,8.85
2023-03-28T14:43:38.284Z,9.25
2023-03-28T14:46:09.236Z,6.97
2023-03-28T14:48:40.200Z,6.18
2023-03-28T14:51:12.540Z,7.57
2023-03-28T14:53:43.454Z,6.70
2023-03-28T14:56:24.023Z,9.48
2023-03-28T14:58:55.316Z,7.65
2023-03-28T15:01:24.488Z,10.50
2023-03-28T15:03:58.913Z,7.43
2023-03-28T15:06:29.257Z,8.25
2023-03-28T15:08:59.726Z,5.80
2023-03-28T15:11:32.531Z,6.72
2023-03-28T15:14:04.608Z,7.65
2023-03-28T15:16:37.248Z,5.05
2023-03-28T15:19:09.833Z,6.72
2023-03-28T15:21:39.490Z,6.70
2023-03-28T15:24:12.223Z,6.20
2023-03-28T15:26:44.448Z,6.97
2023-03-28T15:29:16.789Z,5.75
2023-03-28T15:31:45.247Z,4.68
2023-03-28T15:34:21.932Z,5.88
2023-03-28T15:36:52.633Z,7.95
2023-03-28T15:39:25.478Z,7.10
2023-03-28T15:41:55.733Z,7.65
2023-03-28T15:44:29.006Z,6.22
2023-03-28T15:47:00.782Z,9.07
2023-03-28T15:49:35.647Z,5.18
2023-03-28T15:52:05.971Z,4.75
2023-03-28T15:54:44.211Z,7.18
2023-03-28T15:57:15.347Z,9.63
2023-03-28T15:59:48.484Z,4.93
2023-03-28T16:02:33.487Z,5.30
2023-03-28T16:05:04.877Z,7.80
2023-03-28T16:07:35.220Z,9.63
2023-03-28T16:10:03.818Z,8.18
2023-03-28T16:12:36.430Z,4.78
2023-03-28T16:15:33.463Z,6.30
2023-03-28T16:18:13.555Z,7.45
2023-03-28T16:20:51.683Z,6.28
2023-03-28T16:23:19.897Z,7.80
2023-03-28T16:25:48.069Z,7.80
2023-03-28T16:28:18.916Z,5.80
2023-03-28T16:30:47.468Z,6.25
2023-03-28T16:33:15.684Z,10.00
2023-03-28T16:35:43.830Z,8.57
2023-03-28T16:38:13.279Z,6.47
2023-03-28T16:40:42.115Z,9.15
2023-03-28T16:43:11.330Z,9.50
2023-03-28T16:45:39.599Z,7.40
2023-03-28T16:48:07.914Z,10.13
2023-03-28T16:50:36.934Z,7.68
2023-03-28T16:53:06.516Z,7.82
2023-03-28T16:55:36.024Z,5.45
2023-03-28T16:58:04.040Z,4.72
2023-03-28T17:00:41.461Z,7.45
2023-03-28T17:03:09.498Z,8.00
2023-03-28T17:05:38.175Z,7.70
2023-03-28T17:08:06.778Z,9.20
2023-03-28T17:10:39.559Z,8.02
2023-03-28T17:13:08.052Z,8.20
2023-03-28T17:15:36.470Z,5.70
2023-03-28T17:18:05.906Z,5.68
2023-03-28T17:20:34.302Z,5.30
2023-03-28T17:23:02.412Z,4.68
2023-03-28T17:25:30.977Z,6.13
2023-03-28T17:28:02.871Z,10.75
2023-03-28T17:30:31.053Z,6.63
2023-03-28T17:32:59.248Z,7.88
2023-03-28T17:35:27.307Z,6.60
2023-03-28T17:37:55.793Z,11.40
2023-03-28T17:40:23.821Z,5.63
2023-03-28T17:42:51.795Z,7.22
2023-03-28T17:45:21.159Z,9.27
2023-03-28T17:47:49.193Z,13.38
2023-03-28T17:50:17.328Z,9.88
2023-03-28T17:52:45.295Z,9.68
2023-03-28T17:55:13.437Z,10.32
2023-03-28T17:57:41.654Z,10.60
2023-03-28T18:00:10.840Z,7.45
2023-03-28T18:02:46.188Z,10.43
2023-03-28T18:05:37.191Z,9.30
2023-03-28T18:08:05.135Z,9.98
2023-03-28T18:10:33.197Z,10.70
2023-03-28T18:13:01.518Z,6.65
2023-03-28T18:15:29.624Z,8.55
2023-03-28T18:18:01.694Z,13.18
2023-03-28T18:20:29.853Z,9.82
2023-03-28T18:22:57.989Z,12.45
2023-03-28T18:25:26.211Z,12.90
2023-03-28T18:27:54.180Z,11.23
2023-03-28T18:30:22.187Z,9.68
2023-03-28T18:32:50.202Z,9.80
2023-03-28T18:35:19.610Z,11.90
2023-03-28T18:37:47.622Z,11.95
2023-03-28T18:40:16.422Z,9.57
2023-03-28T18:42:44.497Z,8.63
2023-03-28T18:45:13.986Z,10.40
2023-03-28T18:47:42.040Z,9.23
2023-03-28T18:50:11.525Z,7.05
2023-03-28T18:52:41.024Z,9.48
2023-03-28T18:55:12.022Z,7.28
2023-03-28T18:57:40.356Z,13.63
2023-03-28T19:00:15.186Z,11.93
2023-03-28T19:02:43.205Z,16.30
2023-03-28T19:05:11.492Z,13.43
2023-03-28T19:07:40.912Z,10.98
2023-03-28T19:10:11.771Z,10.45
2023-03-28T19:12:39.794Z,10.07
2023-03-28T19:15:10.499Z,11.07
2023-03-28T19:17:40.311Z,12.68
2023-03-28T19:20:12.718Z,8.25
2023-03-28T19:22:42.560Z,10.60
2023-03-28T19:25:11.471Z,9.00
2023-03-28T19:27:41.214Z,7.97
2023-03-28T19:30:09.982Z,8.13
2023-03-28T19:32:38.062Z,9.32
2023-03-28T19:35:06.906Z,11.02
2023-03-28T19:37:34.872Z,8.07
2023-03-28T19:40:08.852Z,6.65
2023-03-28T19:42:37.540Z,9.70
2023-03-28T19:45:06.648Z,7.82
2023-03-28T19:47:34.907Z,7.93
2023-03-28T19:50:04.324Z,11.43
2023-03-28T19:52:32.272Z,8.65
2023-03-28T19:55:00.455Z,8.35
2023-03-28T19:57:29.857Z,11.30
2023-03-28T19:59:57.913Z,8.85
2023-03-28T20:02:26.062Z,11.05
2023-03-28T20:04:54.128Z,9.20
2023-03-28T20:07:22.118Z,9.15
2023-03-28T20:09:50.149Z,8.32
2023-03-28T20:12:18.972Z,10.57
2023-03-28T20:14:48.349Z,10.52
2023-03-28T20:17:16.331Z,9.07
2023-03-28T20:19:45.239Z,6.35
2023-03-28T20:22:13.293Z,6.20
2023-03-28T20:24:41.309Z,8.18
2023-03-28T20:27:09.259Z,8.23
2023-03-28T20:29:37.550Z,6.13
2023-03-28T20:32:09.809Z,6.40
2023-03-28T20:34:38.442Z,6.30
2023-03-28T20:37:06.426Z,7.55
2023-03-28T20:39:36.822Z,6.10
2023-03-28T20:42:06.202Z,7.88
2023-03-28T20:44:37.987Z,3.75
2023-03-28T20:47:09.047Z,6.20
2023-03-28T20:49:38.237Z,5.47
2023-03-28T20:52:07.884Z,4.60
2023-03-28T20:54:35.938Z,8.23
2023-03-28T20:57:04.061Z,5.88
2023-03-28T20:59:32.240Z,5.07
2023-03-28T21:02:00.146Z,4.25
2023-03-28T21:04:30.239Z,5.93
2023-03-28T21:06:58.525Z,5.70
2023-03-28T21:09:26.505Z,4.57
2023-03-28T21:11:54.469Z,3.50
2023-03-28T21:14:22.450Z,3.10
2023-03-28T21:16:51.668Z,4.40
2023-03-28T21:19:20.758Z,5.15
2023-03-28T21:21:50.106Z,4.10
2023-03-28T21:24:18.030Z,4.75
2023-03-28T21:26:47.329Z,6.63
2023-03-28T21:29:15.301Z,4.53
2023-03-28T21:31:43.331Z,6.28
2023-03-28T21:34:11.308Z,5.55
2023-03-28T21:36:39.588Z,6.80
2023-03-28T21:39:09.389Z,4.30
2023-03-28T21:41:38.194Z,7.78
2023-03-28T21:44:08.949Z,6.07
2023-03-28T21:46:37.000Z,7.20
2023-03-28T21:49:05.030Z,7.20
2023-03-28T21:51:33.257Z,5.80
2023-03-28T21:54:01.235Z,6.80
2023-03-28T21:56:31.203Z,6.68
2023-03-28T21:58:59.207Z,4.72
2023-03-28T22:01:27.413Z,7.05
2023-03-28T22:03:55.430Z,6.60
2023-03-28T22:06:23.421Z,6.13
2023-03-28T22:08:53.132Z,5.63
2023-03-28T22:11:27.350Z,4.70
2023-03-28T22:14:01.422Z,4.95
2023-03-28T22:16:33.754Z,6.03
2023-03-28T22:19:02.744Z,7.38
2023-03-28T22:21:31.690Z,6.05
2023-03-28T22:24:00.764Z,7.80
2023-03-28T22:26:28.693Z,5.82
2023-03-28T22:28:58.459Z,6.72
2023-03-28T22:31:27.102Z,6.57
2023-03-28T22:33:55.758Z,8.85
2023-03-28T22:36:23.899Z,4.40
2023-03-28T22:38:54.722Z,6.32
2023-03-28T22:41:23.666Z,6.60
2023-03-28T22:43:51.681Z,4.72
2023-03-28T22:46:21.202Z,4.20
2023-03-28T22:48:54.095Z,5.03
2023-03-28T22:51:25.154Z,7.38
2023-03-28T22:53:53.967Z,7.68
2023-03-28T22:56:23.348Z,7.00
2023-03-28T22:58:51.550Z,6.20
2023-03-28T23:01:22.985Z,6.13
2023-03-28T23:03:51.930Z,8.55
2023-03-28T23:06:20.426Z,6.47
2023-03-28T23:08:48.382Z,6.93
2023-03-28T23:11:16.322Z,5.82
2023-03-28T23:13:44.486Z,10.48
2023-03-28T23:16:12.523Z,4.85
2023-03-28T23:18:43.216Z,7.55
2023-03-28T23:21:11.188Z,9.38
2023-03-28T23:23:39.885Z,7.88
2023-03-28T23:26:08.327Z,5.97
2023-03-28T23:28:36.601Z,7.30
2023-03-28T23:31:04.683Z,6.10
2023-03-28T23:33:32.763Z,5.70
2023-03-28T23:36:02.102Z,7.60
2023-03-28T23:38:30.208Z,4.60
2023-03-28T23:40:58.166Z,6.47
2023-03-28T23:43:26.197Z,6.75
2023-03-28T23:45:54.353Z,6.20
2023-03-28T23:48:22.317Z,6.32
2023-03-28T23:50:50.596Z,7.03
2023-03-28T23:53:19.968Z,5.32
2023-03-28T23:55:48.065Z,7.32
2023-03-28T23:58:16.315Z,6.15
